Time;durP1;ratioP1;P1;durP2;ratioP2;P2;SDS_P1;SDS_P2;PMS_P1;PMS_P2;Temp;Humidity;BMP_temperature;BMP_pressure;BME280_temperature;BME280_humidity;BME280_pressure;Samples;Min_cycle;Max_cycle;Signal;HPM_P1;HPM_P2
2022/01/02 00:00:44;;;;;;;12.48;6.68;;;5.60;99.90;;;;;;5092382;28;20256;-63
2022/01/02 00:03:09;;;;;;;11.30;5.50;;;5.60;99.90;;;;;;5092589;28;20183;-65
2022/01/02 00:05:38;;;;;;;11.63;5.70;;;5.60;99.90;;;;;;5092355;28;20188;-63
2022/01/02 00:08:09;;;;;;;11.02;6.22;;;5.60;99.90;;;;;;5092154;28;20211;-63
2022/01/02 00:10:56;;;;;;;12.75;6.80;;;5.60;99.90;;;;;;5092330;28;20659;-63
2022/01/02 00:13:35;;;;;;;10.02;6.07;;;5.60;99.90;;;;;;5092360;28;20194;-63
2022/01/02 00:16:07;;;;;;;11.98;6.63;;;5.60;99.90;;;;;;5092450;28;20174;-64
2022/01/02 00:18:36;;;;;;;11.30;6.20;;;5.60;99.90;;;;;;5090371;28;20194;-64
2022/01/02 00:21:07;;;;;;;10.40;5.82;;;5.60;99.90;;;;;;5092042;28;20172;-64
2022/01/02 00:23:48;;;;;;;8.77;5.05;;;5.60;99.90;;;;;;5092408;28;20317;-63
2022/01/02 00:26:17;;;;;;;9.50;5.68;;;5.50;99.90;;;;;;5091968;28;20204;-63
2022/01/02 00:28:46;;;;;;;12.13;5.90;;;5.60;99.90;;;;;;5092089;28;20244;-64
2022/01/02 00:31:13;;;;;;;8.70;5.97;;;5.50;99.90;;;;;;5092271;28;20168;-63
2022/01/02 00:33:41;;;;;;;13.45;5.75;;;5.50;99.90;;;;;;5091924;28;20176;-64
2022/01/02 00:36:06;;;;;;;8.43;5.85;;;5.50;99.90;;;;;;5090908;28;20267;-64
2022/01/02 00:38:32;;;;;;;12.13;6.20;;;5.50;99.90;;;;;;5098659;28;20258;-64
2022/01/02 00:40:58;;;;;;;10.10;6.30;;;5.50;99.90;;;;;;5094781;28;20643;-63
2022/01/02 00:43:33;;;;;;;10.82;6.00;;;5.50;99.90;;;;;;5076306;28;20176;-64
2022/01/02 00:46:03;;;;;;;10.55;5.13;;;5.50;99.90;;;;;;5101957;28;20173;-64
2022/01/02 00:48:29;;;;;;;10.05;5.38;;;5.50;99.90;;;;;;5090410;28;20182;-64
2022/01/02 00:51:21;;;;;;;9.88;5.43;;;5.50;99.90;;;;;;5091785;28;20697;-63
2022/01/02 00:53:48;;;;;;;13.15;6.32;;;5.40;99.90;;;;;;5071386;28;20200;-64
2022/01/02 00:56:17;;;;;;;13.45;5.72;;;5.40;99.90;;;;;;5071880;28;20564;-64
2022/01/02 00:58:51;;;;;;;14.75;6.20;;;5.40;99.90;;;;;;5091497;28;20224;-64
2022/01/02 01:01:22;;;;;;;10.07;5.13;;;5.30;99.90;;;;;;5091745;28;20591;-64
2022/01/02 01:03:53;;;;;;;9.68;5.65;;;5.30;99.90;;;;;;5092119;28;20714;-64
2022/01/02 01:06:25;;;;;;;10.20;5.15;;;5.30;99.90;;;;;;5091548;28;20225;-64
2022/01/02 01:08:56;;;;;;;12.18;5.35;;;5.30;99.90;;;;;;5092071;28;20176;-64
2022/01/02 01:11:25;;;;;;;11.10;5.30;;;5.30;99.90;;;;;;5091717;28;20700;-65
2022/01/02 01:13:52;;;;;;;10.82;5.82;;;5.20;99.90;;;;;;5091831;28;20667;-63
2022/01/02 01:16:18;;;;;;;12.10;6.85;;;5.20;99.90;;;;;;5091954;28;20176;-65
2022/01/02 01:18:44;;;;;;;13.32;7.40;;;5.20;99.90;;;;;;5091780;28;20221;-64
2022/01/02 01:21:10;;;;;;;12.73;6.30;;;5.20;99.90;;;;;;5090525;28;20180;-65
2022/01/02 01:23:36;;;;;;;11.68;5.97;;;5.10;99.90;;;;;;5091780;28;20188;-65
2022/01/02 01:26:06;;;;;;;13.02;6.55;;;5.10;99.90;;;;;;5091876;28;20180;-65
2022/01/02 01:28:32;;;;;;;14.45;6.38;;;5.10;99.90;;;;;;5091732;28;20188;-65
2022/01/02 01:30:57;;;;;;;12.85;5.78;;;5.10;99.90;;;;;;5094966;28;20217;-65
2022/01/02 01:33:23;;;;;;;10.73;5.78;;;5.10;99.90;;;;;;5095286;28;20205;-65
2022/01/02 01:35:49;;;;;;;9.95;5.50;;;5.00;99.90;;;;;;5095113;28;20192;-64
2022/01/02 01:38:14;;;;;;;11.45;6.65;;;5.00;99.90;;;;;;5099454;28;20208;-65
2022/01/02 01:40:51;;;;;;;14.00;6.40;;;5.00;99.90;;;;;;5104073;28;20716;-64
2022/01/02 01:43:17;;;;;;;14.70;6.38;;;5.00;99.90;;;;;;5095321;28;20532;-65
2022/01/02 01:45:43;;;;;;;18.25;7.25;;;5.00;99.90;;;;;;5115865;28;20190;-65
2022/01/02 01:48:08;;;;;;;12.73;6.38;;;4.90;99.90;;;;;;5115664;28;20214;-65
2022/01/02 01:50:41;;;;;;;16.35;7.25;;;4.90;99.90;;;;;;5114796;28;20250;-65
2022/01/02 01:53:08;;;;;;;15.77;7.50;;;4.90;99.90;;;;;;5111945;28;20175;-65
2022/01/02 01:55:35;;;;;;;14.68;7.07;;;4.90;99.90;;;;;;5115644;28;20171;-65
2022/01/02 01:58:03;;;;;;;16.88;7.35;;;4.80;99.90;;;;;;5115473;28;20226;-65
2022/01/02 02:00:30;;;;;;;19.77;7.85;;;4.80;99.90;;;;;;5106939;28;20667;-65
2022/01/02 02:02:56;;;;;;;19.73;9.15;;;4.80;99.90;;;;;;5094827;28;20184;-65
2022/01/02 02:05:21;;;;;;;24.20;10.70;;;4.80;99.90;;;;;;5094630;28;20188;-65
2022/01/02 02:07:47;;;;;;;20.48;9.90;;;4.70;99.90;;;;;;5094494;28;20219;-64
2022/01/02 02:10:26;;;;;;;18.52;8.82;;;4.70;99.90;;;;;;5094442;28;20690;-65
2022/01/02 02:12:54;;;;;;;19.00;9.05;;;4.70;99.90;;;;;;5094743;28;20172;-64
2022/01/02 02:15:21;;;;;;;17.17;9.52;;;4.70;99.90;;;;;;5094725;28;20176;-65
2022/01/02 02:17:49;;;;;;;16.58;9.07;;;4.70;99.90;;;;;;5094257;28;20249;-65
2022/01/02 02:20:24;;;;;;;12.00;6.10;;;4.70;99.90;;;;;;5094181;28;20176;-64
2022/01/02 02:22:53;;;;;;;13.40;6.82;;;4.70;99.90;;;;;;5094510;28;20266;-65
2022/01/02 02:25:20;;;;;;;10.57;6.20;;;4.70;99.90;;;;;;5093003;28;20231;-65
2022/01/02 02:28:10;;;;;;;12.70;6.00;;;4.70;99.90;;;;;;5094309;28;20214;-65
2022/01/02 02:30:38;;;;;;;11.23;6.20;;;4.70;99.90;;;;;;5093632;28;20262;-65
2022/01/02 02:33:05;;;;;;;9.93;6.00;;;4.60;99.90;;;;;;5093858;28;20270;-65
2022/01/02 02:35:33;;;;;;;11.55;6.20;;;4.60;99.90;;;;;;5094342;28;20205;-64
2022/01/02 02:37:58;;;;;;;10.70;5.70;;;4.60;99.90;;;;;;5094195;28;20180;-64
2022/01/02 02:40:27;;;;;;;10.20;6.43;;;4.60;99.90;;;;;;5093755;28;20184;-65
2022/01/02 02:42:54;;;;;;;6.93;5.07;;;4.60;99.90;;;;;;5093948;28;20180;-65
2022/01/02 02:48:59;;;;;;;8.13;5.47;;;4.50;99.90;;;;;;5093040;28;20257;-65
2022/01/02 02:51:25;;;;;;;8.95;6.05;;;4.50;99.90;;;;;;5092639;28;20674;-65
2022/01/02 02:53:52;;;;;;;11.43;6.40;;;4.50;99.90;;;;;;5093306;28;20168;-65
2022/01/02 02:56:22;;;;;;;8.68;5.70;;;4.50;99.90;;;;;;5092810;28;20172;-65
2022/01/02 02:58:49;;;;;;;9.65;6.50;;;4.50;99.90;;;;;;5093652;28;20733;-66
2022/01/02 03:01:17;;;;;;;14.55;7.97;;;4.50;99.90;;;;;;5093097;28;20718;-65
2022/01/02 03:03:45;;;;;;;14.60;7.32;;;4.50;99.90;;;;;;5092163;28;20183;-65
2022/01/02 03:06:12;;;;;;;12.77;6.95;;;4.50;99.90;;;;;;5093192;28;20670;-65
2022/01/02 03:08:40;;;;;;;12.20;6.68;;;4.40;99.90;;;;;;5093166;28;20634;-65
2022/01/02 03:11:09;;;;;;;16.02;7.45;;;4.40;99.90;;;;;;5092224;28;20674;-65
2022/01/02 03:13:35;;;;;;;12.57;6.70;;;4.40;99.90;;;;;;5093522;28;20190;-64
2022/01/02 03:16:00;;;;;;;14.95;7.82;;;4.40;99.90;;;;;;5093260;28;20259;-65
2022/01/02 03:18:26;;;;;;;12.32;7.15;;;4.40;99.90;;;;;;5091618;28;20184;-65
2022/01/02 03:20:51;;;;;;;16.13;7.90;;;4.30;99.90;;;;;;5093041;28;20272;-65
2022/01/02 03:23:17;;;;;;;13.63;7.72;;;4.30;99.90;;;;;;5092780;28;20586;-65
2022/01/02 03:25:42;;;;;;;17.88;9.15;;;4.30;99.90;;;;;;5093143;28;20188;-65
2022/01/02 03:28:08;;;;;;;14.27;8.18;;;4.30;99.90;;;;;;5092645;28;20207;-65
2022/01/02 03:30:34;;;;;;;16.00;7.85;;;4.30;99.90;;;;;;5092950;28;20180;-64
2022/01/02 03:32:59;;;;;;;13.05;7.45;;;4.30;99.90;;;;;;5092549;28;20180;-65
2022/01/02 03:35:25;;;;;;;11.60;7.10;;;4.30;99.90;;;;;;5092820;28;20176;-65
2022/01/02 03:37:51;;;;;;;12.35;6.82;;;4.30;99.90;;;;;;5093281;28;20169;-65
2022/01/02 03:40:16;;;;;;;10.30;6.22;;;4.30;99.90;;;;;;5092520;28;20188;-65
2022/01/02 03:42:42;;;;;;;8.98;6.03;;;4.30;99.90;;;;;;5093089;28;20184;-65
2022/01/02 03:45:08;;;;;;;9.30;6.30;;;4.30;99.90;;;;;;5093118;28;20180;-65
2022/01/02 03:47:34;;;;;;;10.77;6.35;;;4.30;99.90;;;;;;5092430;28;20208;-65
2022/01/02 03:49:59;;;;;;;9.63;6.32;;;4.20;99.90;;;;;;5092434;28;20176;-65
2022/01/02 03:52:25;;;;;;;11.15;6.55;;;4.20;99.90;;;;;;5092060;28;20211;-65
2022/01/02 03:54:51;;;;;;;9.65;5.90;;;4.20;99.90;;;;;;5092455;28;20217;-65
2022/01/02 03:57:17;;;;;;;10.35;6.32;;;4.20;99.90;;;;;;5092040;28;20176;-65
2022/01/02 03:59:42;;;;;;;11.18;6.60;;;4.20;99.90;;;;;;5092582;28;20184;-65
2022/01/02 04:02:08;;;;;;;12.00;7.18;;;4.20;99.90;;;;;;5092493;28;20180;-65
2022/01/02 04:04:33;;;;;;;9.48;6.68;;;4.10;99.90;;;;;;5092457;28;20184;-65
2022/01/02 04:06:59;;;;;;;15.65;7.93;;;4.20;99.90;;;;;;5092581;28;20265;-66
2022/01/02 04:09:25;;;;;;;12.30;6.40;;;4.10;99.90;;;;;;5092182;28;20750;-65
2022/01/02 04:11:50;;;;;;;8.90;5.53;;;4.10;99.90;;;;;;5092754;28;20176;-65
2022/01/02 04:14:16;;;;;;;11.23;6.20;;;4.10;99.90;;;;;;5092761;28;20179;-65
2022/01/02 04:16:41;;;;;;;10.90;6.45;;;4.00;99.90;;;;;;5092218;28;20558;-65
2022/01/02 04:19:07;;;;;;;13.63;7.53;;;4.00;99.90;;;;;;5092373;28;20179;-65
2022/01/02 04:21:32;;;;;;;11.52;7.25;;;4.00;99.90;;;;;;5092199;28;20712;-65
2022/01/02 04:23:58;;;;;;;10.88;6.72;;;4.00;99.90;;;;;;5092296;28;20529;-65
2022/01/02 04:26:23;;;;;;;11.30;6.70;;;4.10;99.90;;;;;;5092363;28;20199;-65
2022/01/02 04:28:49;;;;;;;11.80;6.65;;;4.10;99.90;;;;;;5091898;28;20180;-65
2022/01/02 04:31:14;;;;;;;9.15;6.03;;;4.10;99.90;;;;;;5096303;28;20255;-65
2022/01/02 04:33:40;;;;;;;12.95;6.47;;;4.10;99.90;;;;;;5108775;28;20262;-65
2022/01/02 04:36:06;;;;;;;11.00;6.47;;;4.10;99.90;;;;;;5103176;28;20204;-65
2022/01/02 04:38:31;;;;;;;9.52;6.40;;;4.20;99.90;;;;;;5092209;28;20176;-65
2022/01/02 04:40:57;;;;;;;8.95;6.38;;;4.20;99.90;;;;;;5092123;28;20712;-65
2022/01/02 04:43:22;;;;;;;11.43;6.72;;;4.20;99.90;;;;;;5092261;28;20534;-65
2022/01/02 04:45:48;;;;;;;10.93;6.68;;;4.30;99.90;;;;;;5092067;28;20172;-65
2022/01/02 04:48:13;;;;;;;11.15;7.30;;;4.30;99.90;;;;;;5091662;28;20215;-65
2022/01/02 04:50:39;;;;;;;10.18;6.50;;;4.40;99.90;;;;;;5091655;28;20191;-65
2022/01/02 04:53:05;;;;;;;11.68;7.00;;;4.40;99.90;;;;;;5092062;28;20188;-65
2022/01/02 04:55:30;;;;;;;10.02;6.22;;;4.40;99.90;;;;;;5091423;28;20198;-65
2022/01/02 04:57:56;;;;;;;13.00;7.65;;;4.40;99.90;;;;;;5091549;28;20215;-65
2022/01/02 05:00:22;;;;;;;13.45;7.97;;;4.40;99.90;;;;;;5091618;28;20213;-65
2022/01/02 05:02:49;;;;;;;14.93;7.82;;;4.40;99.90;;;;;;5092080;28;20180;-65
2022/01/02 05:05:15;;;;;;;15.80;8.13;;;4.50;99.90;;;;;;5093657;28;20532;-65
2022/01/02 05:07:41;;;;;;;10.80;6.72;;;4.50;99.90;;;;;;5095819;28;20670;-65
2022/01/02 05:10:07;;;;;;;13.10;7.35;;;4.50;99.90;;;;;;5095926;28;20176;-65
2022/01/02 05:12:34;;;;;;;12.13;6.88;;;4.50;99.90;;;;;;5095961;28;20188;-65
2022/01/02 05:15:00;;;;;;;12.52;6.30;;;4.50;99.90;;;;;;5095856;28;20180;-65
2022/01/02 05:17:25;;;;;;;10.32;6.72;;;4.60;99.90;;;;;;5095673;28;20187;-65
2022/01/02 05:19:51;;;;;;;8.95;5.95;;;4.50;99.90;;;;;;5095616;28;20176;-65
2022/01/02 05:22:16;;;;;;;9.13;5.72;;;4.50;99.90;;;;;;5096046;28;20177;-65
2022/01/02 05:24:42;;;;;;;8.38;5.93;;;4.50;99.90;;;;;;5095691;28;20184;-65
2022/01/02 05:27:07;;;;;;;12.70;6.93;;;4.60;99.90;;;;;;5095407;28;20210;-65
2022/01/02 05:29:33;;;;;;;10.30;6.25;;;4.60;99.90;;;;;;5095338;28;20565;-63
2022/01/02 05:31:59;;;;;;;9.48;6.40;;;4.60;99.90;;;;;;5095626;28;20195;-63
2022/01/02 05:34:24;;;;;;;9.40;6.28;;;4.60;99.90;;;;;;5095585;28;20207;-63
2022/01/02 05:36:50;;;;;;;9.32;6.00;;;4.60;99.90;;;;;;5095337;28;20183;-63
2022/01/02 05:39:20;;;;;;;9.15;6.10;;;4.60;99.90;;;;;;5095526;28;20187;-63
2022/01/02 05:41:46;;;;;;;8.98;5.90;;;4.60;99.90;;;;;;5095305;28;20188;-63
2022/01/02 05:44:13;;;;;;;10.23;6.15;;;4.60;99.90;;;;;;5095395;28;20176;-63
2022/01/02 05:46:38;;;;;;;8.57;6.22;;;4.60;99.90;;;;;;5095102;28;20203;-62
2022/01/02 05:49:04;;;;;;;8.07;5.55;;;4.60;99.90;;;;;;5094821;28;20176;-63
2022/01/02 05:51:30;;;;;;;7.93;5.80;;;4.70;99.90;;;;;;5109171;28;20258;-64
2022/01/02 05:53:55;;;;;;;7.25;5.40;;;4.70;99.90;;;;;;5115061;28;20211;-64
2022/01/02 05:56:21;;;;;;;8.23;5.43;;;4.60;99.90;;;;;;5095174;28;20238;-64
2022/01/02 05:58:46;;;;;;;9.98;6.13;;;4.70;99.90;;;;;;5092709;28;20216;-64
2022/01/02 06:01:12;;;;;;;6.53;5.47;;;4.70;99.90;;;;;;5093746;28;20631;-64
2022/01/02 06:03:37;;;;;;;6.65;5.38;;;4.70;99.90;;;;;;5092235;28;20210;-64
2022/01/02 06:06:04;;;;;;;7.57;6.55;;;4.70;99.90;;;;;;5093283;28;20229;-65
2022/01/02 06:08:29;;;;;;;8.85;5.65;;;4.70;99.90;;;;;;5092998;28;20294;-64
2022/01/02 06:10:55;;;;;;;8.85;5.82;;;4.60;99.90;;;;;;5093491;28;20666;-64
2022/01/02 06:13:20;;;;;;;8.35;5.90;;;4.70;99.90;;;;;;5093016;28;20547;-65
2022/01/02 06:15:46;;;;;;;9.18;5.97;;;4.70;99.90;;;;;;5093113;28;20635;-64
2022/01/02 06:18:12;;;;;;;8.50;6.28;;;4.60;99.90;;;;;;5092181;28;20618;-64
2022/01/02 06:20:38;;;;;;;8.02;6.18;;;4.70;99.90;;;;;;5093442;28;20192;-65
2022/01/02 06:23:04;;;;;;;8.68;5.70;;;4.70;99.90;;;;;;5093452;28;20614;-65
2022/01/02 06:25:30;;;;;;;8.20;5.43;;;4.70;99.90;;;;;;5093373;28;20207;-65
2022/01/02 06:27:55;;;;;;;6.68;5.18;;;4.70;99.90;;;;;;5093293;28;20269;-64
2022/01/02 06:30:21;;;;;;;9.23;5.40;;;4.70;99.90;;;;;;5093126;28;20183;-64
2022/01/02 06:32:54;;;;;;;9.27;5.53;;;4.70;99.90;;;;;;5093181;28;20180;-64
2022/01/02 06:35:21;;;;;;;8.27;6.18;;;4.70;99.90;;;;;;5093293;28;20187;-64
2022/01/02 06:37:46;;;;;;;7.47;5.18;;;4.70;99.90;;;;;;5093089;28;20245;-64
2022/01/02 06:40:12;;;;;;;8.95;6.00;;;4.70;99.90;;;;;;5092997;28;20169;-64
2022/01/02 06:42:37;;;;;;;7.68;5.43;;;4.70;99.90;;;;;;5093228;28;20176;-64
2022/01/02 06:45:03;;;;;;;7.95;5.95;;;4.70;99.90;;;;;;5091806;28;20180;-64
2022/01/02 06:47:28;;;;;;;8.15;5.47;;;4.70;99.90;;;;;;5092557;28;20321;-64
2022/01/02 06:49:54;;;;;;;8.20;5.50;;;4.70;99.90;;;;;;5092956;28;20180;-64
2022/01/02 06:52:19;;;;;;;8.20;5.57;;;4.70;99.90;;;;;;5091708;28;20580;-65
2022/01/02 06:54:45;;;;;;;6.47;5.35;;;4.60;99.90;;;;;;5092515;28;20267;-65
2022/01/02 06:57:10;;;;;;;7.47;5.37;;;4.70;99.90;;;;;;5055455;28;1050388;-65
2022/01/02 06:59:36;;;;;;;8.25;5.63;;;4.70;99.90;;;;;;5094061;28;20180;-65
2022/01/02 07:02:02;;;;;;;8.38;5.68;;;4.70;99.90;;;;;;5093139;28;20180;-65
2022/01/02 07:04:27;;;;;;;6.60;5.05;;;4.60;99.90;;;;;;5093892;28;20185;-65
2022/01/02 07:06:53;;;;;;;8.85;5.47;;;4.70;99.90;;;;;;5097265;28;20208;-65
2022/01/02 07:09:18;;;;;;;9.52;5.50;;;4.70;99.90;;;;;;5098811;28;20175;-65
2022/01/02 07:11:44;;;;;;;8.13;5.15;;;4.70;99.90;;;;;;5093359;28;20176;-65
2022/01/02 07:14:09;;;;;;;8.38;5.70;;;4.70;99.90;;;;;;5093254;28;20177;-65
2022/01/02 07:16:35;;;;;;;6.68;5.22;;;4.70;99.90;;;;;;5092683;28;20172;-65
2022/01/02 07:19:00;;;;;;;8.40;5.22;;;4.70;99.90;;;;;;5091491;28;20187;-65
2022/01/02 07:21:26;;;;;;;10.48;6.13;;;4.70;99.90;;;;;;5093352;28;20598;-63
2022/01/02 07:23:54;;;;;;;8.35;5.85;;;4.70;99.90;;;;;;5093310;28;20188;-62
2022/01/02 07:26:20;;;;;;;9.20;5.88;;;4.70;99.90;;;;;;5093153;28;20628;-62
2022/01/02 07:28:45;;;;;;;7.13;5.43;;;4.70;99.90;;;;;;5091481;28;20241;-62
2022/01/02 07:31:11;;;;;;;8.18;6.43;;;4.70;99.90;;;;;;5091565;28;20184;-63
2022/01/02 07:33:36;;;;;;;7.90;5.80;;;4.70;99.90;;;;;;5093455;28;20254;-62
2022/01/02 07:36:02;;;;;;;7.82;5.75;;;4.70;99.90;;;;;;5093106;28;20317;-63
2022/01/02 07:38:28;;;;;;;8.00;5.45;;;4.70;99.90;;;;;;5093057;28;20262;-63
2022/01/02 07:40:53;;;;;;;8.90;5.38;;;4.70;99.90;;;;;;5092953;28;20192;-63
2022/01/02 07:43:19;;;;;;;7.15;5.28;;;4.70;99.90;;;;;;5074845;28;20171;-63
2022/01/02 07:45:44;;;;;;;7.32;5.65;;;4.70;99.90;;;;;;5093008;28;20264;-63
2022/01/02 07:48:10;;;;;;;6.88;5.03;;;4.70;99.90;;;;;;5093055;28;20222;-62
2022/01/02 07:50:35;;;;;;;9.18;5.13;;;4.80;99.90;;;;;;5092834;28;20554;-63
2022/01/02 07:53:01;;;;;;;5.70;4.85;;;4.80;99.90;;;;;;5092889;28;20191;-63
2022/01/02 07:55:27;;;;;;;6.70;5.18;;;4.80;99.90;;;;;;5092562;28;20587;-63
2022/01/02 07:57:52;;;;;;;8.20;5.50;;;4.80;99.90;;;;;;5092048;28;20270;-63
2022/01/02 08:00:18;;;;;;;9.35;7.63;;;4.80;99.90;;;;;;5092456;28;20650;-62
2022/01/02 08:02:44;;;;;;;10.60;7.10;;;4.80;99.90;;;;;;5076394;28;20200;-64
2022/01/02 08:05:10;;;;;;;7.20;5.53;;;4.70;99.90;;;;;;5092588;28;20177;-61
2022/01/02 08:07:39;;;;;;;9.38;6.30;;;4.60;99.90;;;;;;5092094;28;20219;-61
2022/01/02 08:10:06;;;;;;;7.43;5.65;;;4.60;99.90;;;;;;5089206;28;20172;-62
2022/01/02 08:12:31;;;;;;;9.57;6.55;;;4.70;99.90;;;;;;5092692;28;20539;-64
2022/01/02 08:14:57;;;;;;;7.90;5.82;;;4.70;99.90;;;;;;5092738;28;20179;-61
2022/01/02 08:17:22;;;;;;;8.02;5.72;;;4.80;99.90;;;;;;5092198;28;20220;-61
2022/01/02 08:19:48;;;;;;;7.10;5.97;;;4.80;99.90;;;;;;5092253;28;20651;-61
2022/01/02 08:22:13;;;;;;;7.80;5.72;;;4.90;99.90;;;;;;5091973;28;20196;-62
2022/01/02 08:24:39;;;;;;;6.82;5.55;;;4.90;99.90;;;;;;5090772;28;20179;-61
2022/01/02 08:27:04;;;;;;;6.60;4.97;;;5.00;99.90;;;;;;5091703;28;20204;-61
2022/01/02 08:29:30;;;;;;;7.13;4.78;;;5.00;99.90;;;;;;5092021;28;20259;-60
2022/01/02 08:31:55;;;;;;;8.40;5.35;;;5.10;99.90;;;;;;5091008;28;20575;-61
2022/01/02 08:34:21;;;;;;;7.13;4.97;;;5.10;99.90;;;;;;5084885;28;20180;-61
2022/01/02 08:36:46;;;;;;;8.93;5.43;;;5.20;99.90;;;;;;5081341;28;20180;-61
2022/01/02 08:39:12;;;;;;;9.23;5.25;;;5.20;99.90;;;;;;5092384;28;20183;-62
2022/01/02 08:41:37;;;;;;;8.50;5.32;;;5.30;99.90;;;;;;5092150;28;20172;-62
2022/01/02 08:44:03;;;;;;;7.20;5.25;;;5.40;99.90;;;;;;5091907;28;20263;-62
2022/01/02 08:46:28;;;;;;;8.50;5.88;;;5.50;99.90;;;;;;5091755;28;20203;-62
2022/01/02 08:48:54;;;;;;;8.38;5.57;;;5.60;99.90;;;;;;5091782;28;20226;-62
2022/01/02 08:51:19;;;;;;;10.18;6.18;;;5.80;99.90;;;;;;5090423;28;20183;-63
2022/01/02 08:53:45;;;;;;;13.38;8.77;;;5.80;99.90;;;;;;5091576;28;20616;-64
2022/01/02 08:56:10;;;;;;;18.92;12.18;;;5.90;99.90;;;;;;5090313;28;20180;-64
2022/01/02 08:58:36;;;;;;;12.10;9.38;;;6.00;99.90;;;;;;5091386;28;20215;-59
2022/01/02 09:01:02;;;;;;;13.48;9.00;;;6.20;99.90;;;;;;5091459;28;20203;-61
2022/01/02 09:03:29;;;;;;;12.90;9.20;;;6.30;99.90;;;;;;5092050;28;20172;-62
2022/01/02 09:05:55;;;;;;;12.25;7.68;;;6.40;99.90;;;;;;5091854;28;20172;-59
2022/01/02 09:08:20;;;;;;;11.57;7.80;;;6.60;99.90;;;;;;5088727;28;20268;-62
2022/01/02 09:10:46;;;;;;;9.25;6.85;;;6.60;99.90;;;;;;5091696;28;20211;-60
2022/01/02 09:13:12;;;;;;;10.80;7.15;;;6.70;99.90;;;;;;5091235;28;20184;-63
2022/01/02 09:15:38;;;;;;;9.73;7.18;;;6.80;99.90;;;;;;5091693;28;20164;-61
2022/01/02 09:18:05;;;;;;;13.98;8.93;;;7.00;99.90;;;;;;5091654;28;20560;-65
2022/01/02 09:20:31;;;;;;;13.90;9.60;;;7.10;99.90;;;;;;5091944;28;20176;-64
2022/01/02 09:22:56;;;;;;;13.93;9.95;;;7.20;99.90;;;;;;5091484;28;20184;-63
2022/01/02 09:25:22;;;;;;;13.30;8.95;;;7.20;99.90;;;;;;5091726;28;20192;-63
2022/01/02 09:27:47;;;;;;;19.15;12.32;;;7.20;99.90;;;;;;5091302;28;20601;-64
2022/01/02 09:30:13;;;;;;;22.77;12.45;;;7.30;99.90;;;;;;5090928;28;20247;-63
2022/01/02 09:32:40;;;;;;;24.98;14.18;;;7.30;99.90;;;;;;5096561;28;20183;-61
2022/01/02 09:35:07;;;;;;;20.67;11.88;;;7.30;99.90;;;;;;5090960;28;20524;-62
2022/01/02 09:37:36;;;;;;;21.35;11.90;;;7.30;99.90;;;;;;5091360;28;20620;-62
2022/01/02 09:40:03;;;;;;;23.23;14.13;;;7.30;99.90;;;;;;5090874;28;20219;-63
2022/01/02 09:42:29;;;;;;;25.58;14.18;;;7.30;99.90;;;;;;5091372;28;20184;-62
2022/01/02 09:44:55;;;;;;;16.45;10.55;;;7.40;99.90;;;;;;5091190;28;20191;-62
2022/01/02 09:47:22;;;;;;;15.90;10.25;;;7.50;99.90;;;;;;5094622;28;20861;-62
2022/01/02 09:49:49;;;;;;;14.38;9.35;;;7.50;99.90;;;;;;5105002;28;20215;-62
2022/01/02 09:52:15;;;;;;;15.82;9.38;;;7.60;99.90;;;;;;5094111;28;20222;-62
2022/01/02 09:54:41;;;;;;;13.02;8.90;;;7.60;99.90;;;;;;5094679;28;20666;-62
2022/01/02 09:57:07;;;;;;;16.08;8.43;;;7.70;99.90;;;;;;5093223;28;20177;-63
2022/01/02 09:59:32;;;;;;;12.10;8.25;;;7.70;99.90;;;;;;5094486;28;20180;-62
2022/01/02 10:02:01;;;;;;;17.83;8.00;;;7.70;99.90;;;;;;5095146;28;20180;-62
2022/01/02 10:04:36;;;;;;;11.00;7.80;;;7.70;99.90;;;;;;5094490;28;20184;-62
2022/01/02 10:07:03;;;;;;;12.02;8.18;;;7.70;99.90;;;;;;5091306;28;20211;-62
2022/01/02 10:09:39;;;;;;;12.02;8.43;;;7.70;99.90;;;;;;5094338;28;20270;-62
2022/01/02 10:12:19;;;;;;;12.15;7.85;;;7.70;99.90;;;;;;5093934;28;20180;-62
2022/01/02 10:14:45;;;;;;;11.85;7.70;;;7.60;99.90;;;;;;5093635;28;20643;-62
2022/01/02 10:17:10;;;;;;;11.48;7.53;;;7.60;99.90;;;;;;5093256;28;20245;-62
2022/01/02 10:19:38;;;;;;;11.65;7.28;;;7.60;99.90;;;;;;5095015;28;20184;-62
2022/01/02 10:22:06;;;;;;;10.45;7.30;;;7.60;99.90;;;;;;5094762;28;20638;-62
2022/01/02 10:24:37;;;;;;;9.50;7.03;;;7.60;99.90;;;;;;5094681;28;20191;-62
2022/01/02 10:27:08;;;;;;;12.63;8.48;;;7.70;99.90;;;;;;5093154;28;20212;-62
2022/01/02 10:29:54;;;;;;;14.95;9.18;;;7.70;99.90;;;;;;5094511;28;20199;-62
2022/01/02 10:32:30;;;;;;;16.23;10.95;;;7.70;99.90;;;;;;5092178;28;20180;-62
2022/01/02 10:35:10;;;;;;;20.45;12.45;;;7.80;99.90;;;;;;5101659;28;20279;-62
2022/01/02 10:37:36;;;;;;;21.45;12.75;;;7.80;99.90;;;;;;5093389;28;20188;-62
2022/01/02 10:40:03;;;;;;;25.13;12.88;;;7.90;99.90;;;;;;5080523;28;20613;-62
2022/01/02 10:42:28;;;;;;;21.75;13.43;;;8.00;99.90;;;;;;5077012;28;20214;-62
2022/01/02 10:44:54;;;;;;;20.30;12.68;;;8.10;99.90;;;;;;5094044;28;20180;-62
2022/01/02 10:47:24;;;;;;;22.98;13.45;;;8.20;99.90;;;;;;5093267;28;20204;-62
2022/01/02 10:50:02;;;;;;;20.50;12.45;;;8.20;99.90;;;;;;5091412;28;20706;-62
2022/01/02 10:52:35;;;;;;;16.98;11.65;;;8.20;99.90;;;;;;5094027;28;20180;-62
2022/01/02 10:55:25;;;;;;;18.98;10.35;;;8.20;99.90;;;;;;5093714;28;20176;-62
2022/01/02 10:57:53;;;;;;;18.02;11.25;;;8.30;99.90;;;;;;5073762;28;20715;-62
2022/01/02 11:00:21;;;;;;;17.75;11.48;;;8.40;99.90;;;;;;5074795;28;20213;-62
2022/01/02 11:02:47;;;;;;;17.20;11.05;;;8.40;99.90;;;;;;5092843;28;20174;-62
2022/01/02 11:05:14;;;;;;;16.17;9.98;;;8.40;99.90;;;;;;5093599;28;20176;-62
2022/01/02 11:07:41;;;;;;;14.52;9.60;;;8.30;99.90;;;;;;5093925;28;20219;-62
2022/01/02 11:10:11;;;;;;;15.20;9.95;;;8.30;99.90;;;;;;5093507;28;20192;-62
2022/01/02 11:12:39;;;;;;;15.07;9.23;;;8.30;99.90;;;;;;5093718;28;20226;-62
2022/01/02 11:15:07;;;;;;;14.75;8.63;;;8.30;99.90;;;;;;5093813;28;20246;-61
2022/01/02 11:17:35;;;;;;;12.13;7.22;;;8.40;99.90;;;;;;5093603;28;20658;-61
2022/01/02 11:20:06;;;;;;;11.18;7.45;;;8.50;99.90;;;;;;5093520;28;20184;-61
2022/01/02 11:22:35;;;;;;;13.73;8.43;;;8.60;99.90;;;;;;5091862;28;20539;-62
2022/01/02 11:25:12;;;;;;;15.55;8.70;;;8.70;99.90;;;;;;5093043;28;20524;-62
2022/01/02 11:27:51;;;;;;;12.50;8.52;;;8.80;99.90;;;;;;5092722;28;20211;-62
2022/01/02 11:30:32;;;;;;;12.85;8.45;;;8.90;99.90;;;;;;5089638;28;20538;-62
2022/01/02 11:33:14;;;;;;;12.68;8.05;;;9.00;99.90;;;;;;5092768;28;20186;-62
2022/01/02 11:35:42;;;;;;;13.55;8.50;;;9.00;99.90;;;;;;5089881;28;20179;-62
2022/01/02 11:38:09;;;;;;;12.32;8.40;;;9.00;99.90;;;;;;5085444;28;20168;-62
2022/01/02 11:40:53;;;;;;;12.38;8.38;;;9.00;99.90;;;;;;5092448;28;20180;-62
2022/01/02 11:43:46;;;;;;;11.15;7.78;;;9.00;99.90;;;;;;5091548;28;20204;-62
2022/01/02 11:46:25;;;;;;;11.50;9.02;;;9.10;99.90;;;;;;5082621;28;20636;-62
2022/01/02 11:49:08;;;;;;;14.43;10.10;;;9.10;99.90;;;;;;5093770;28;20729;-61
2022/01/02 11:51:50;;;;;;;15.55;9.63;;;9.20;99.90;;;;;;5108780;28;20172;-61
2022/01/02 11:54:40;;;;;;;14.30;8.95;;;9.20;99.90;;;;;;5092891;28;20184;-63
2022/01/02 11:57:15;;;;;;;16.30;9.40;;;9.30;99.90;;;;;;5092093;28;20258;-60
2022/01/02 11:59:44;;;;;;;12.65;8.43;;;9.40;99.90;;;;;;5093030;28;20647;-63
2022/01/02 12:02:29;;;;;;;13.07;9.07;;;9.40;99.90;;;;;;5092286;28;20184;-62
2022/01/02 12:04:58;;;;;;;17.00;9.88;;;9.50;99.90;;;;;;5090812;28;20558;-64
2022/01/02 12:07:33;;;;;;;15.38;9.57;;;9.60;99.90;;;;;;5072618;28;20800;-63
2022/01/02 12:10:13;;;;;;;16.60;9.45;;;9.70;99.90;;;;;;5078731;28;20250;-62
2022/01/02 12:13:24;;;;;;;15.27;9.48;;;9.80;99.90;;;;;;5092079;28;20179;-62
2022/01/02 12:15:51;;;;;;;12.70;8.38;;;9.90;99.90;;;;;;5064774;28;20258;-61
2022/01/02 12:18:25;;;;;;;47.70;25.23;;;10.10;99.90;;;;;;5092227;28;20215;-60
2022/01/02 12:20:51;;;;;;;48.28;26.67;;;10.30;99.90;;;;;;5092402;28;20198;-61
2022/01/02 12:23:34;;;;;;;15.82;9.73;;;10.60;99.90;;;;;;5092281;28;20647;-62
2022/01/02 12:26:05;;;;;;;59.72;32.35;;;10.80;99.90;;;;;;5092209;28;20715;-62
2022/01/02 12:28:48;;;;;;;24.35;14.63;;;10.90;99.90;;;;;;5092466;28;20208;-63
2022/01/02 12:31:18;;;;;;;17.50;10.88;;;11.40;99.90;;;;;;5090774;28;20215;-63
2022/01/02 12:33:45;;;;;;;16.63;8.45;;;12.00;99.90;;;;;;5092058;28;20188;-63
2022/01/02 12:36:13;;;;;;;16.90;9.70;;;12.50;99.90;;;;;;5091734;28;20564;-63
2022/01/02 12:38:54;;;;;;;13.85;8.75;;;12.90;99.90;;;;;;5091831;28;20263;-63
2022/01/02 12:41:23;;;;;;;10.88;8.13;;;13.30;99.90;;;;;;5087855;28;20712;-62
2022/01/02 12:44:04;;;;;;;11.68;7.68;;;13.60;99.90;;;;;;5091512;28;20832;-62
2022/01/02 12:46:40;;;;;;;8.73;6.75;;;13.50;99.90;;;;;;5091452;28;20215;-60
2022/01/02 12:49:16;;;;;;;14.18;8.13;;;13.20;99.90;;;;;;5091525;28;20179;-61
2022/01/02 12:51:45;;;;;;;11.50;7.60;;;13.20;99.90;;;;;;5092624;28;20171;-61
2022/01/02 12:54:14;;;;;;;8.98;6.70;;;13.50;99.90;;;;;;5091528;28;20180;-61
2022/01/02 12:56:49;;;;;;;8.43;6.00;;;13.80;99.90;;;;;;5092172;28;20619;-60